sensor_id;sensor_type;location;lat;lon;timestamp;temperature;humidity
18741;DHT22;9499;52.472;13.448;2022-12-07T00:01:29;2.80;99.90
18741;DHT22;9499;52.472;13.448;2022-12-07T00:04:00;2.80;99.90
18741;DHT22;9499;52.472;13.448;2022-12-07T00:06:30;2.80;99.90
18741;DHT22;9499;52.472;13.448;2022-12-07T00:08:56;2.80;99.90
18741;DHT22;9499;52.472;13.448;2022-12-07T00:11:25;2.80;99.90
18741;DHT22;9499;52.472;13.448;2022-12-07T00:13:53;2.70;99.90
18741;DHT22;9499;52.472;13.448;2022-12-07T00:16:21;2.70;99.90
18741;DHT22;9499;52.472;13.448;2022-12-07T00:18:48;2.70;99.90
18741;DHT22;9499;52.472;13.448;2022-12-07T00:21:16;2.60;99.90
18741;DHT22;9499;52.472;13.448;2022-12-07T00:23:44;2.60;99.90
18741;DHT22;9499;52.472;13.448;2022-12-07T00:26:13;2.50;99.90
18741;DHT22;9499;52.472;13.448;2022-12-07T00:28:45;2.60;99.90
18741;DHT22;9499;52.472;13.448;2022-12-07T00:31:13;2.50;99.90
18741;DHT22;9499;52.472;13.448;2022-12-07T00:33:40;2.50;99.90
18741;DHT22;9499;52.472;13.448;2022-12-07T00:36:09;2.50;99.90
18741;DHT22;9499;52.472;13.448;2022-12-07T00:38:37;2.50;99.90
18741;DHT22;9499;52.472;13.448;2022-12-07T00:41:06;2.50;99.90
18741;DHT22;9499;52.472;13.448;2022-12-07T00:43:33;2.60;99.90
18741;DHT22;9499;52.472;13.448;2022-12-07T00:46:01;2.50;99.90
18741;DHT22;9499;52.472;13.448;2022-12-07T00:48:28;2.50;99.90
18741;DHT22;9499;52.472;13.448;2022-12-07T00:50:54;2.50;99.90
18741;DHT22;9499;52.472;13.448;2022-12-07T00:53:21;2.40;99.90
18741;DHT22;9499;52.472;13.448;2022-12-07T00:55:48;2.40;99.90
18741;DHT22;9499;52.472;13.448;2022-12-07T00:58:15;2.40;99.90
18741;DHT22;9499;52.472;13.448;2022-12-07T01:00:42;2.30;99.90
18741;DHT22;9499;52.472;13.448;2022-12-07T01:03:12;2.30;99.90
18741;DHT22;9499;52.472;13.448;2022-12-07T01:05:39;2.20;99.90
18741;DHT22;9499;52.472;13.448;2022-12-07T01:08:06;2.20;99.90
18741;DHT22;9499;52.472;13.448;2022-12-07T01:10:32;2.20;99.90
18741;DHT22;9499;52.472;13.448;2022-12-07T01:12:59;2.20;99.90
18741;DHT22;9499;52.472;13.448;2022-12-07T01:15:26;2.20;99.90
18741;DHT22;9499;52.472;13.448;2022-12-07T01:17:53;2.20;99.90
18741;DHT22;9499;52.472;13.448;2022-12-07T01:20:21;2.20;99.90
18741;DHT22;9499;52.472;13.448;2022-12-07T01:22:48;2.10;99.90
18741;DHT22;9499;52.472;13.448;2022-12-07T01:25:15;2.20;99.90
18741;DHT22;9499;52.472;13.448;2022-12-07T01:27:41;2.20;99.90
18741;DHT22;9499;52.472;13.448;2022-12-07T01:30:10;2.20;99.90
18741;DHT22;9499;52.472;13.448;2022-12-07T01:32:37;2.20;99.90
18741;DHT22;9499;52.472;13.448;2022-12-07T01:35:04;2.10;99.90
18741;DHT22;9499;52.472;13.448;2022-12-07T01:37:35;2.10;99.90
18741;DHT22;9499;52.472;13.448;2022-12-07T01:40:02;2.20;99.90
18741;DHT22;9499;52.472;13.448;2022-12-07T01:42:29;2.20;99.90
18741;DHT22;9499;52.472;13.448;2022-12-07T01:48:13;2.20;99.90
18741;DHT22;9499;52.472;13.448;2022-12-07T01:50:42;2.20;99.90
18741;DHT22;9499;52.472;13.448;2022-12-07T01:53:11;2.20;99.90
18741;DHT22;9499;52.472;13.448;2022-12-07T01:55:41;2.10;99.90
18741;DHT22;9499;52.472;13.448;2022-12-07T01:58:08;2.20;99.90
18741;DHT22;9499;52.472;13.448;2022-12-07T02:00:35;2.20;99.90
18741;DHT22;9499;52.472;13.448;2022-12-07T02:03:05;2.10;99.90
18741;DHT22;9499;52.472;13.448;2022-12-07T02:05:34;2.20;99.90
18741;DHT22;9499;52.472;13.448;2022-12-07T02:08:01;2.10;99.90
18741;DHT22;9499;52.472;13.448;2022-12-07T02:10:32;2.10;99.90
18741;DHT22;9499;52.472;13.448;2022-12-07T02:13:04;2.10;99.90
18741;DHT22;9499;52.472;13.448;2022-12-07T02:15:41;2.20;99.90
18741;DHT22;9499;52.472;13.448;2022-12-07T02:18:17;2.20;99.90
18741;DHT22;9499;52.472;13.448;2022-12-07T02:20:52;2.20;99.90
18741;DHT22;9499;52.472;13.448;2022-12-07T02:23:52;2.30;99.90
18741;DHT22;9499;52.472;13.448;2022-12-07T02:26:49;2.30;99.90
18741;DHT22;9499;52.472;13.448;2022-12-07T02:29:24;2.20;99.90
18741;DHT22;9499;52.472;13.448;2022-12-07T02:31:58;2.20;99.90
18741;DHT22;9499;52.472;13.448;2022-12-07T02:34:34;2.20;99.90
18741;DHT22;9499;52.472;13.448;2022-12-07T02:37:09;2.30;99.90
18741;DHT22;9499;52.472;13.448;2022-12-07T02:39:41;2.30;99.90
18741;DHT22;9499;52.472;13.448;2022-12-07T02:42:13;2.30;99.90
18741;DHT22;9499;52.472;13.448;2022-12-07T02:44:43;2.20;99.90
18741;DHT22;9499;52.472;13.448;2022-12-07T02:47:13;2.20;99.90
18741;DHT22;9499;52.472;13.448;2022-12-07T02:49:40;2.20;99.90
18741;DHT22;9499;52.472;13.448;2022-12-07T02:52:07;2.20;99.90
18741;DHT22;9499;52.472;13.448;2022-12-07T02:54:34;2.20;99.90
18741;DHT22;9499;52.472;13.448;2022-12-07T02:57:05;2.20;99.90
18741;DHT22;9499;52.472;13.448;2022-12-07T02:59:48;2.10;99.90
18741;DHT22;9499;52.472;13.448;2022-12-07T03:02:27;2.00;99.90
18741;DHT22;9499;52.472;13.448;2022-12-07T03:05:02;2.00;99.90
18741;DHT22;9499;52.472;13.448;2022-12-07T03:07:36;2.00;99.90
18741;DHT22;9499;52.472;13.448;2022-12-07T03:10:10;2.00;99.90
18741;DHT22;9499;52.472;13.448;2022-12-07T03:12:44;2.00;99.90
18741;DHT22;9499;52.472;13.448;2022-12-07T03:15:18;1.90;99.90
18741;DHT22;9499;52.472;13.448;2022-12-07T03:17:46;1.90;99.90
18741;DHT22;9499;52.472;13.448;2022-12-07T03:20:17;1.80;99.90
18741;DHT22;9499;52.472;13.448;2022-12-07T03:22:46;1.80;99.90
18741;DHT22;9499;52.472;13.448;2022-12-07T03:25:15;1.70;99.90
18741;DHT22;9499;52.472;13.448;2022-12-07T03:27:48;1.70;99.90
18741;DHT22;9499;52.472;13.448;2022-12-07T03:30:20;1.80;99.90
18741;DHT22;9499;52.472;13.448;2022-12-07T03:32:50;1.80;99.90
18741;DHT22;9499;52.472;13.448;2022-12-07T03:35:23;1.80;99.90
18741;DHT22;9499;52.472;13.448;2022-12-07T03:37:54;1.70;99.90
18741;DHT22;9499;52.472;13.448;2022-12-07T03:40:25;1.70;99.90
18741;DHT22;9499;52.472;13.448;2022-12-07T03:42:53;1.70;99.90
18741;DHT22;9499;52.472;13.448;2022-12-07T03:45:26;1.70;99.90
18741;DHT22;9499;52.472;13.448;2022-12-07T03:48:04;1.70;99.90
18741;DHT22;9499;52.472;13.448;2022-12-07T03:50:38;1.70;99.90
18741;DHT22;9499;52.472;13.448;2022-12-07T03:53:11;1.70;99.90
18741;DHT22;9499;52.472;13.448;2022-12-07T03:55:41;1.70;99.90
18741;DHT22;9499;52.472;13.448;2022-12-07T03:58:11;1.70;99.90
18741;DHT22;9499;52.472;13.448;2022-12-07T04:00:40;1.70;99.90
18741;DHT22;9499;52.472;13.448;2022-12-07T04:03:06;1.70;99.90
18741;DHT22;9499;52.472;13.448;2022-12-07T04:05:33;1.80;99.90
18741;DHT22;9499;52.472;13.448;2022-12-07T04:07:59;1.80;99.90
18741;DHT22;9499;52.472;13.448;2022-12-07T04:10:26;1.80;99.90
18741;DHT22;9499;52.472;13.448;2022-12-07T04:12:52;1.80;99.90
18741;DHT22;9499;52.472;13.448;2022-12-07T04:15:19;1.80;99.90
18741;DHT22;9499;52.472;13.448;2022-12-07T04:17:47;1.80;99.90
18741;DHT22;9499;52.472;13.448;2022-12-07T04:20:14;1.80;99.90
18741;DHT22;9499;52.472;13.448;2022-12-07T04:22:40;1.80;99.90
18741;DHT22;9499;52.472;13.448;2022-12-07T04:25:07;1.70;99.90
18741;DHT22;9499;52.472;13.448;2022-12-07T04:27:33;1.70;99.90
18741;DHT22;9499;52.472;13.448;2022-12-07T04:30:00;1.70;99.90
18741;DHT22;9499;52.472;13.448;2022-12-07T04:32:26;1.70;99.90
18741;DHT22;9499;52.472;13.448;2022-12-07T04:34:54;1.70;99.90
18741;DHT22;9499;52.472;13.448;2022-12-07T04:37:21;1.70;99.90
18741;DHT22;9499;52.472;13.448;2022-12-07T04:39:48;1.70;99.90
18741;DHT22;9499;52.472;13.448;2022-12-07T04:42:14;1.70;99.90
18741;DHT22;9499;52.472;13.448;2022-12-07T04:44:41;1.60;99.90
18741;DHT22;9499;52.472;13.448;2022-12-07T04:47:07;1.60;99.90
18741;DHT22;9499;52.472;13.448;2022-12-07T04:49:34;1.70;99.90
18741;DHT22;9499;52.472;13.448;2022-12-07T04:52:02;1.70;99.90
18741;DHT22;9499;52.472;13.448;2022-12-07T04:54:28;1.70;99.90
18741;DHT22;9499;52.472;13.448;2022-12-07T04:56:55;1.70;99.90
18741;DHT22;9499;52.472;13.448;2022-12-07T04:59:21;1.70;99.90
18741;DHT22;9499;52.472;13.448;2022-12-07T05:01:47;1.70;99.90
18741;DHT22;9499;52.472;13.448;2022-12-07T05:04:14;1.70;99.90
18741;DHT22;9499;52.472;13.448;2022-12-07T05:06:43;1.70;99.90
18741;DHT22;9499;52.472;13.448;2022-12-07T05:09:11;1.70;99.90
18741;DHT22;9499;52.472;13.448;2022-12-07T05:11:37;1.80;99.90
18741;DHT22;9499;52.472;13.448;2022-12-07T05:14:10;1.80;99.90
18741;DHT22;9499;52.472;13.448;2022-12-07T05:16:38;1.80;99.90
18741;DHT22;9499;52.472;13.448;2022-12-07T05:19:05;1.80;99.90
18741;DHT22;9499;52.472;13.448;2022-12-07T05:21:32;1.80;99.90
18741;DHT22;9499;52.472;13.448;2022-12-07T05:23:58;1.80;99.90
18741;DHT22;9499;52.472;13.448;2022-12-07T05:26:27;1.90;99.90
18741;DHT22;9499;52.472;13.448;2022-12-07T05:28:55;1.90;99.90
18741;DHT22;9499;52.472;13.448;2022-12-07T05:31:23;1.90;99.90
18741;DHT22;9499;52.472;13.448;2022-12-07T05:33:50;1.90;99.90
18741;DHT22;9499;52.472;13.448;2022-12-07T05:36:16;2.00;99.90
18741;DHT22;9499;52.472;13.448;2022-12-07T05:38:43;2.00;99.90
18741;DHT22;9499;52.472;13.448;2022-12-07T05:41:13;2.00;99.90
18741;DHT22;9499;52.472;13.448;2022-12-07T05:43:55;2.10;99.90
18741;DHT22;9499;52.472;13.448;2022-12-07T05:46:22;2.00;99.90
18741;DHT22;9499;52.472;13.448;2022-12-07T05:48:49;2.10;99.90
18741;DHT22;9499;52.472;13.448;2022-12-07T05:51:15;2.10;99.90
18741;DHT22;9499;52.472;13.448;2022-12-07T05:53:42;2.20;99.90
18741;DHT22;9499;52.472;13.448;2022-12-07T05:56:08;2.20;99.90
18741;DHT22;9499;52.472;13.448;2022-12-07T05:58:35;2.20;99.90
18741;DHT22;9499;52.472;13.448;2022-12-07T06:01:20;2.20;99.90
18741;DHT22;9499;52.472;13.448;2022-12-07T06:03:47;2.30;99.90
18741;DHT22;9499;52.472;13.448;2022-12-07T06:06:13;2.30;99.90
18741;DHT22;9499;52.472;13.448;2022-12-07T06:08:40;2.30;99.90
18741;DHT22;9499;52.472;13.448;2022-12-07T06:11:06;2.40;99.90
18741;DHT22;9499;52.472;13.448;2022-12-07T06:13:47;2.40;99.90
18741;DHT22;9499;52.472;13.448;2022-12-07T06:16:13;2.40;99.90
18741;DHT22;9499;52.472;13.448;2022-12-07T06:18:41;2.50;99.90
18741;DHT22;9499;52.472;13.448;2022-12-07T06:21:07;2.50;99.90
18741;DHT22;9499;52.472;13.448;2022-12-07T06:23:34;2.50;99.90
18741;DHT22;9499;52.472;13.448;2022-12-07T06:26:00;2.50;99.90
18741;DHT22;9499;52.472;13.448;2022-12-07T06:28:27;2.50;99.90
18741;DHT22;9499;52.472;13.448;2022-12-07T06:30:57;2.50;99.90
18741;DHT22;9499;52.472;13.448;2022-12-07T06:33:24;2.50;99.90
18741;DHT22;9499;52.472;13.448;2022-12-07T06:35:52;2.50;99.90
18741;DHT22;9499;52.472;13.448;2022-12-07T06:38:19;2.50;99.90
18741;DHT22;9499;52.472;13.448;2022-12-07T06:40:45;2.50;99.90
18741;DHT22;9499;52.472;13.448;2022-12-07T06:43:12;2.50;99.90
18741;DHT22;9499;52.472;13.448;2022-12-07T06:45:38;2.60;99.90
18741;DHT22;9499;52.472;13.448;2022-12-07T06:48:05;2.60;99.90
18741;DHT22;9499;52.472;13.448;2022-12-07T06:50:31;2.60;99.90
18741;DHT22;9499;52.472;13.448;2022-12-07T06:52:59;2.60;99.90
18741;DHT22;9499;52.472;13.448;2022-12-07T06:55:26;2.60;99.90
18741;DHT22;9499;52.472;13.448;2022-12-07T06:57:52;2.70;99.90
18741;DHT22;9499;52.472;13.448;2022-12-07T07:00:19;2.70;99.90
18741;DHT22;9499;52.472;13.448;2022-12-07T07:02:46;2.70;99.90
18741;DHT22;9499;52.472;13.448;2022-12-07T07:05:12;2.80;99.90
18741;DHT22;9499;52.472;13.448;2022-12-07T07:07:39;2.80;99.90
18741;DHT22;9499;52.472;13.448;2022-12-07T07:10:07;2.90;99.90
18741;DHT22;9499;52.472;13.448;2022-12-07T07:12:34;2.90;99.90
18741;DHT22;9499;52.472;13.448;2022-12-07T07:15:00;2.90;99.90
18741;DHT22;9499;52.472;13.448;2022-12-07T07:17:27;3.00;99.90
18741;DHT22;9499;52.472;13.448;2022-12-07T07:19:53;3.00;99.90
18741;DHT22;9499;52.472;13.448;2022-12-07T07:22:20;3.00;99.90
18741;DHT22;9499;52.472;13.448;2022-12-07T07:24:46;3.10;99.90
18741;DHT22;9499;52.472;13.448;2022-12-07T07:27:14;3.20;99.90
18741;DHT22;9499;52.472;13.448;2022-12-07T07:29:40;3.20;99.90
18741;DHT22;9499;52.472;13.448;2022-12-07T07:32:07;3.20;99.90
18741;DHT22;9499;52.472;13.448;2022-12-07T07:34:34;3.20;99.90
18741;DHT22;9499;52.472;13.448;2022-12-07T07:37:00;3.20;99.90
18741;DHT22;9499;52.472;13.448;2022-12-07T07:39:27;3.30;99.90
18741;DHT22;9499;52.472;13.448;2022-12-07T07:41:53;3.30;99.90
18741;DHT22;9499;52.472;13.448;2022-12-07T07:44:21;3.30;99.90
18741;DHT22;9499;52.472;13.448;2022-12-07T07:46:47;3.30;99.90
18741;DHT22;9499;52.472;13.448;2022-12-07T07:49:14;3.30;99.90
18741;DHT22;9499;52.472;13.448;2022-12-07T07:51:40;3.40;99.90
18741;DHT22;9499;52.472;13.448;2022-12-07T07:54:07;3.40;99.90
18741;DHT22;9499;52.472;13.448;2022-12-07T07:56:33;3.40;99.90
18741;DHT22;9499;52.472;13.448;2022-12-07T07:58:59;3.40;99.90
18741;DHT22;9499;52.472;13.448;2022-12-07T08:01:27;3.40;99.90
18741;DHT22;9499;52.472;13.448;2022-12-07T08:03:54;3.40;99.90
18741;DHT22;9499;52.472;13.448;2022-12-07T08:06:20;3.40;99.90
18741;DHT22;9499;52.472;13.448;2022-12-07T08:08:47;3.40;99.90
18741;DHT22;9499;52.472;13.448;2022-12-07T08:11:13;3.50;99.90
18741;DHT22;9499;52.472;13.448;2022-12-07T08:13:40;3.50;99.90
18741;DHT22;9499;52.472;13.448;2022-12-07T08:16:08;3.50;99.90
18741;DHT22;9499;52.472;13.448;2022-12-07T08:18:36;3.50;99.90
18741;DHT22;9499;52.472;13.448;2022-12-07T08:21:04;3.50;99.90
18741;DHT22;9499;52.472;13.448;2022-12-07T08:23:31;3.60;99.90
18741;DHT22;9499;52.472;13.448;2022-12-07T08:26:00;3.60;99.90
18741;DHT22;9499;52.472;13.448;2022-12-07T08:28:27;3.60;99.90
18741;DHT22;9499;52.472;13.448;2022-12-07T08:30:58;3.60;99.90
18741;DHT22;9499;52.472;13.448;2022-12-07T08:33:25;3.60;99.90
18741;DHT22;9499;52.472;13.448;2022-12-07T08:35:52;3.60;99.90
18741;DHT22;9499;52.472;13.448;2022-12-07T08:38:19;3.60;99.90
18741;DHT22;9499;52.472;13.448;2022-12-07T08:40:53;3.60;99.90
18741;DHT22;9499;52.472;13.448;2022-12-07T08:43:19;3.60;99.90
18741;DHT22;9499;52.472;13.448;2022-12-07T08:45:47;3.60;99.90
18741;DHT22;9499;52.472;13.448;2022-12-07T08:48:14;3.70;99.90
18741;DHT22;9499;52.472;13.448;2022-12-07T08:50:43;3.70;99.90
18741;DHT22;9499;52.472;13.448;2022-12-07T08:53:11;3.70;99.90
18741;DHT22;9499;52.472;13.448;2022-12-07T08:55:37;3.70;99.90
18741;DHT22;9499;52.472;13.448;2022-12-07T08:58:04;3.70;99.90
18741;DHT22;9499;52.472;13.448;2022-12-07T09:00:30;3.80;99.90
18741;DHT22;9499;52.472;13.448;2022-12-07T09:02:57;3.80;99.90
18741;DHT22;9499;52.472;13.448;2022-12-07T09:05:23;3.80;99.90
18741;DHT22;9499;52.472;13.448;2022-12-07T09:07:52;3.80;99.90
18741;DHT22;9499;52.472;13.448;2022-12-07T09:10:22;3.70;99.90
18741;DHT22;9499;52.472;13.448;2022-12-07T09:12:49;3.70;99.90
18741;DHT22;9499;52.472;13.448;2022-12-07T09:15:15;3.70;99.90
18741;DHT22;9499;52.472;13.448;2022-12-07T09:17:42;3.70;99.90
18741;DHT22;9499;52.472;13.448;2022-12-07T09:20:09;3.70;99.90
18741;DHT22;9499;52.472;13.448;2022-12-07T09:22:36;3.70;99.90
18741;DHT22;9499;52.472;13.448;2022-12-07T09:25:04;3.70;99.90
18741;DHT22;9499;52.472;13.448;2022-12-07T09:27:32;3.60;99.90
18741;DHT22;9499;52.472;13.448;2022-12-07T09:29:58;3.60;99.90
18741;DHT22;9499;52.472;13.448;2022-12-07T09:32:24;3.60;99.90
18741;DHT22;9499;52.472;13.448;2022-12-07T09:34:51;3.60;99.90
18741;DHT22;9499;52.472;13.448;2022-12-07T09:37:17;3.60;99.90
18741;DHT22;9499;52.472;13.448;2022-12-07T09:39:44;3.60;99.90
18741;DHT22;9499;52.472;13.448;2022-12-07T09:42:24;3.60;99.90
18741;DHT22;9499;52.472;13.448;2022-12-07T09:44:53;3.60;99.90
18741;DHT22;9499;52.472;13.448;2022-12-07T09:47:20;3.60;99.90
18741;DHT22;9499;52.472;13.448;2022-12-07T09:49:46;3.60;99.90
18741;DHT22;9499;52.472;13.448;2022-12-07T09:52:19;3.60;99.90
18741;DHT22;9499;52.472;13.448;2022-12-07T09:54:47;3.60;99.90
18741;DHT22;9499;52.472;13.448;2022-12-07T09:57:15;3.60;99.90
18741;DHT22;9499;52.472;13.448;2022-12-07T09:59:42;3.50;99.90
18741;DHT22;9499;52.472;13.448;2022-12-07T10:02:33;3.50;99.90
18741;DHT22;9499;52.472;13.448;2022-12-07T10:05:01;3.50;99.90
18741;DHT22;9499;52.472;13.448;2022-12-07T10:07:29;3.50;99.90
18741;DHT22;9499;52.472;13.448;2022-12-07T10:09:56;3.50;99.90
18741;DHT22;9499;52.472;13.448;2022-12-07T10:12:22;3.50;99.90
18741;DHT22;9499;52.472;13.448;2022-12-07T10:14:57;3.50;99.90
18741;DHT22;9499;52.472;13.448;2022-12-07T10:17:33;3.50;99.90
18741;DHT22;9499;52.472;13.448;2022-12-07T10:20:13;3.50;99.90
18741;DHT22;9499;52.472;13.448;2022-12-07T10:22:58;3.50;99.90
18741;DHT22;9499;52.472;13.448;2022-12-07T10:25:31;3.50;99.90
18741;DHT22;9499;52.472;13.448;2022-12-07T10:28:01;3.50;99.90
18741;DHT22;9499;52.472;13.448;2022-12-07T10:30:30;3.50;99.90
18741;DHT22;9499;52.472;13.448;2022-12-07T10:32:59;3.50;99.90
18741;DHT22;9499;52.472;13.448;2022-12-07T10:35:27;3.50;99.90
18741;DHT22;9499;52.472;13.448;2022-12-07T10:37:55;3.50;99.90
18741;DHT22;9499;52.472;13.448;2022-12-07T10:40:26;3.50;99.90
18741;DHT22;9499;52.472;13.448;2022-12-07T10:43:01;3.50;99.90
18741;DHT22;9499;52.472;13.448;2022-12-07T10:45:28;3.60;99.90
18741;DHT22;9499;52.472;13.448;2022-12-07T10:48:02;3.60;99.90
18741;DHT22;9499;52.472;13.448;2022-12-07T10:50:58;3.70;99.90
18741;DHT22;9499;52.472;13.448;2022-12-07T10:53:45;3.60;99.90
18741;DHT22;9499;52.472;13.448;2022-12-07T10:56:39;3.60;99.90
18741;DHT22;9499;52.472;13.448;2022-12-07T10:59:36;3.60;99.90
18741;DHT22;9499;52.472;13.448;2022-12-07T11:02:17;3.60;99.90
18741;DHT22;9499;52.472;13.448;2022-12-07T11:04:59;3.50;99.90
18741;DHT22;9499;52.472;13.448;2022-12-07T11:07:38;3.60;99.90
18741;DHT22;9499;52.472;13.448;2022-12-07T11:10:12;3.60;99.90
18741;DHT22;9499;52.472;13.448;2022-12-07T11:12:59;3.60;99.90
18741;DHT22;9499;52.472;13.448;2022-12-07T11:15:36;3.70;99.90
18741;DHT22;9499;52.472;13.448;2022-12-07T11:18:13;3.80;99.90
18741;DHT22;9499;52.472;13.448;2022-12-07T11:20:45;3.80;99.90
18741;DHT22;9499;52.472;13.448;2022-12-07T11:23:23;3.80;99.90
18741;DHT22;9499;52.472;13.448;2022-12-07T11:25:59;3.80;99.90
18741;DHT22;9499;52.472;13.448;2022-12-07T11:28:39;3.80;99.90
18741;DHT22;9499;52.472;13.448;2022-12-07T11:31:13;3.80;99.90
18741;DHT22;9499;52.472;13.448;2022-12-07T11:33:46;3.80;99.90
18741;DHT22;9499;52.472;13.448;2022-12-07T11:36:31;3.70;99.90
18741;DHT22;9499;52.472;13.448;2022-12-07T11:39:02;3.80;99.90
18741;DHT22;9499;52.472;13.448;2022-12-07T11:41:33;3.80;99.90
18741;DHT22;9499;52.472;13.448;2022-12-07T11:44:05;3.80;99.90
18741;DHT22;9499;52.472;13.448;2022-12-07T11:46:43;3.90;99.90
18741;DHT22;9499;52.472;13.448;2022-12-07T11:49:16;3.90;99.90
18741;DHT22;9499;52.472;13.448;2022-12-07T11:51:48;3.90;99.90
18741;DHT22;9499;52.472;13.448;2022-12-07T11:54:21;3.90;99.90
18741;DHT22;9499;52.472;13.448;2022-12-07T11:56:50;3.90;99.90
18741;DHT22;9499;52.472;13.448;2022-12-07T11:59:22;3.90;99.90
18741;DHT22;9499;52.472;13.448;2022-12-07T12:01:53;4.00;99.90
18741;DHT22;9499;52.472;13.448;2022-12-07T12:04:31;4.00;99.90
18741;DHT22;9499;52.472;13.448;2022-12-07T12:07:01;4.00;99.90
18741;DHT22;9499;52.472;13.448;2022-12-07T12:09:32;4.00;99.90
18741;DHT22;9499;52.472;13.448;2022-12-07T12:15:00;4.00;99.90
18741;DHT22;9499;52.472;13.448;2022-12-07T12:17:47;4.10;99.90
18741;DHT22;9499;52.472;13.448;2022-12-07T12:20:22;4.10;99.90
18741;DHT22;9499;52.472;13.448;2022-12-07T12:22:54;4.10;99.90
18741;DHT22;9499;52.472;13.448;2022-12-07T12:25:25;4.10;99.90
18741;DHT22;9499;52.472;13.448;2022-12-07T12:27:54;4.10;99.90
18741;DHT22;9499;52.472;13.448;2022-12-07T12:30:32;4.10;99.90
18741;DHT22;9499;52.472;13.448;2022-12-07T12:33:06;4.10;99.90
18741;DHT22;9499;52.472;13.448;2022-12-07T12:35:38;4.10;99.90
18741;DHT22;9499;52.472;13.448;2022-12-07T12:38:27;4.20;99.90
18741;DHT22;9499;52.472;13.448;2022-12-07T12:40:55;4.20;99.90
18741;DHT22;9499;52.472;13.448;2022-12-07T12:43:51;4.20;99.90
18741;DHT22;9499;52.472;13.448;2022-12-07T12:46:38;4.20;99.90
18741;DHT22;9499;52.472;13.448;2022-12-07T12:49:38;4.20;99.90
18741;DHT22;9499;52.472;13.448;2022-12-07T12:55:44;4.20;99.90
18741;DHT22;9499;52.472;13.448;2022-12-07T12:58:30;4.20;99.90
18741;DHT22;9499;52.472;13.448;2022-12-07T13:04:24;4.20;99.90
18741;DHT22;9499;52.472;13.448;2022-12-07T13:06:51;4.30;99.90
18741;DHT22;9499;52.472;13.448;2022-12-07T13:09:21;4.30;99.90
18741;DHT22;9499;52.472;13.448;2022-12-07T13:11:56;4.30;99.90
18741;DHT22;9499;52.472;13.448;2022-12-07T13:14:54;4.40;99.90
18741;DHT22;9499;52.472;13.448;2022-12-07T13:17:55;4.40;99.90
18741;DHT22;9499;52.472;13.448;2022-12-07T13:20:44;4.40;99.90
18741;DHT22;9499;52.472;13.448;2022-12-07T13:23:12;4.40;99.90
18741;DHT22;9499;52.472;13.448;2022-12-07T13:25:46;4.40;99.90
18741;DHT22;9499;52.472;13.448;2022-12-07T13:28:17;4.40;99.90
18741;DHT22;9499;52.472;13.448;2022-12-07T13:30:58;4.40;99.90
18741;DHT22;9499;52.472;13.448;2022-12-07T13:33:28;4.40;99.90
18741;DHT22;9499;52.472;13.448;2022-12-07T13:35:56;4.40;99.90
18741;DHT22;9499;52.472;13.448;2022-12-07T13:38:28;4.40;99.90
18741;DHT22;9499;52.472;13.448;2022-12-07T13:41:04;4.40;99.90
18741;DHT22;9499;52.472;13.448;2022-12-07T13:43:43;4.40;99.90
18741;DHT22;9499;52.472;13.448;2022-12-07T13:46:11;4.50;99.90
18741;DHT22;9499;52.472;13.448;2022-12-07T13:48:44;4.40;99.90
18741;DHT22;9499;52.472;13.448;2022-12-07T13:51:18;4.40;99.90
18741;DHT22;9499;52.472;13.448;2022-12-07T13:53:47;4.50;99.90
18741;DHT22;9499;52.472;13.448;2022-12-07T13:56:14;4.40;99.90
18741;DHT22;9499;52.472;13.448;2022-12-07T13:58:42;4.40;99.90
18741;DHT22;9499;52.472;13.448;2022-12-07T14:01:09;4.40;99.90
18741;DHT22;9499;52.472;13.448;2022-12-07T14:03:36;4.40;99.90
18741;DHT22;9499;52.472;13.448;2022-12-07T14:06:06;4.40;99.90
18741;DHT22;9499;52.472;13.448;2022-12-07T14:08:37;4.40;99.90
18741;DHT22;9499;52.472;13.448;2022-12-07T14:11:04;4.40;99.90
18741;DHT22;9499;52.472;13.448;2022-12-07T14:13:32;4.30;99.90
18741;DHT22;9499;52.472;13.448;2022-12-07T14:16:01;4.30;99.90
18741;DHT22;9499;52.472;13.448;2022-12-07T14:18:29;4.30;99.90
18741;DHT22;9499;52.472;13.448;2022-12-07T14:21:04;4.30;99.90
18741;DHT22;9499;52.472;13.448;2022-12-07T14:23:30;4.30;99.90
18741;DHT22;9499;52.472;13.448;2022-12-07T14:26:06;4.30;99.90
18741;DHT22;9499;52.472;13.448;2022-12-07T14:28:35;4.30;99.90
18741;DHT22;9499;52.472;13.448;2022-12-07T14:31:10;4.30;99.90
18741;DHT22;9499;52.472;13.448;2022-12-07T14:33:37;4.30;99.90
18741;DHT22;9499;52.472;13.448;2022-12-07T14:36:04;4.30;99.90
18741;DHT22;9499;52.472;13.448;2022-12-07T14:38:31;4.30;99.90
18741;DHT22;9499;52.472;13.448;2022-12-07T14:40:57;4.30;99.90
18741;DHT22;9499;52.472;13.448;2022-12-07T14:43:44;4.20;99.90
18741;DHT22;9499;52.472;13.448;2022-12-07T14:46:12;4.20;99.90
18741;DHT22;9499;52.472;13.448;2022-12-07T14:48:38;4.20;99.90
18741;DHT22;9499;52.472;13.448;2022-12-07T14:51:05;4.20;99.90
18741;DHT22;9499;52.472;13.448;2022-12-07T14:53:35;4.10;99.90
18741;DHT22;9499;52.472;13.448;2022-12-07T14:56:03;4.10;99.90
18741;DHT22;9499;52.472;13.448;2022-12-07T14:58:31;4.10;99.90
18741;DHT22;9499;52.472;13.448;2022-12-07T15:00:58;4.10;99.90
18741;DHT22;9499;52.472;13.448;2022-12-07T15:03:26;4.10;99.90
18741;DHT22;9499;52.472;13.448;2022-12-07T15:05:53;4.00;99.90
18741;DHT22;9499;52.472;13.448;2022-12-07T15:08:19;4.00;99.90
18741;DHT22;9499;52.472;13.448;2022-12-07T15:10:46;4.00;99.90
18741;DHT22;9499;52.472;13.448;2022-12-07T15:13:12;4.00;99.90
18741;DHT22;9499;52.472;13.448;2022-12-07T15:15:57;4.00;99.90
18741;DHT22;9499;52.472;13.448;2022-12-07T15:18:23;4.00;99.90
18741;DHT22;9499;52.472;13.448;2022-12-07T15:20:51;3.90;99.90
18741;DHT22;9499;52.472;13.448;2022-12-07T15:23:18;3.90;99.90
18741;DHT22;9499;52.472;13.448;2022-12-07T15:25:46;3.80;99.90
18741;DHT22;9499;52.472;13.448;2022-12-07T15:28:13;3.80;99.90
18741;DHT22;9499;52.472;13.448;2022-12-07T15:30:40;3.70;99.90
18741;DHT22;9499;52.472;13.448;2022-12-07T15:33:08;3.70;99.90
18741;DHT22;9499;52.472;13.448;2022-12-07T15:35:38;3.70;99.90
18741;DHT22;9499;52.472;13.448;2022-12-07T15:38:06;3.70;99.90
18741;DHT22;9499;52.472;13.448;2022-12-07T15:40:33;3.70;99.90
18741;DHT22;9499;52.472;13.448;2022-12-07T15:43:00;3.70;99.90
18741;DHT22;9499;52.472;13.448;2022-12-07T15:45:27;3.70;99.90
18741;DHT22;9499;52.472;13.448;2022-12-07T15:47:52;3.70;99.90
18741;DHT22;9499;52.472;13.448;2022-12-07T15:50:21;3.70;99.90
18741;DHT22;9499;52.472;13.448;2022-12-07T15:52:48;3.70;99.90
18741;DHT22;9499;52.472;13.448;2022-12-07T15:55:16;3.70;99.90
18741;DHT22;9499;52.472;13.448;2022-12-07T15:57:42;3.70;99.90
18741;DHT22;9499;52.472;13.448;2022-12-07T16:00:10;3.70;99.90
18741;DHT22;9499;52.472;13.448;2022-12-07T16:02:37;3.70;99.90
18741;DHT22;9499;52.472;13.448;2022-12-07T16:05:04;3.70;99.90
18741;DHT22;9499;52.472;13.448;2022-12-07T16:07:31;3.60;99.90
18741;DHT22;9499;52.472;13.448;2022-12-07T16:09:57;3.70;99.90
18741;DHT22;9499;52.472;13.448;2022-12-07T16:12:25;3.60;99.90
18741;DHT22;9499;52.472;13.448;2022-12-07T16:14:51;3.60;99.90
18741;DHT22;9499;52.472;13.448;2022-12-07T16:17:18;3.60;99.90